sensor_id;sensor_type;location;lat;lon;timestamp;pressure;altitude;pressure_sealevel;temperature;humidity
10127;BME280;13080;42.608;23.362;2023-04-09T00:01:33;151981.75;;;3.47;100.00
10127;BME280;13080;42.608;23.362;2023-04-09T00:04:00;151977.91;;;3.46;100.00
10127;BME280;13080;42.608;23.362;2023-04-09T00:06:27;151975.28;;;3.45;100.00
10127;BME280;13080;42.608;23.362;2023-04-09T00:08:53;151997.25;;;3.53;100.00
10127;BME280;13080;42.608;23.362;2023-04-09T00:11:20;151993.38;;;3.52;100.00
10127;BME280;13080;42.608;23.362;2023-04-09T00:13:48;151994.69;;;3.52;100.00
10127;BME280;13080;42.608;23.362;2023-04-09T00:16:15;151994.69;;;3.52;100.00
10127;BME280;13080;42.608;23.362;2023-04-09T00:18:42;152002.44;;;3.56;100.00
10127;BME280;13080;42.608;23.362;2023-04-09T00:21:09;152014.03;;;3.60;100.00
10127;BME280;13080;42.608;23.362;2023-04-09T00:23:35;152025.66;;;3.65;100.00
10127;BME280;13080;42.608;23.362;2023-04-09T00:26:02;152029.56;;;3.66;100.00
10127;BME280;13080;42.608;23.362;2023-04-09T00:28:29;152052.81;;;3.75;100.00
10127;BME280;13080;42.608;23.362;2023-04-09T00:30:57;152059.25;;;3.78;100.00
10127;BME280;13080;42.608;23.362;2023-04-09T00:33:24;152067.03;;;3.81;100.00
10127;BME280;13080;42.608;23.362;2023-04-09T00:35:50;152059.25;;;3.78;100.00
10127;BME280;13080;42.608;23.362;2023-04-09T00:38:17;152064.44;;;3.80;100.00
10127;BME280;13080;42.608;23.362;2023-04-09T00:40:47;152061.88;;;3.79;100.00
10127;BME280;13080;42.608;23.362;2023-04-09T00:43:14;152060.53;;;3.79;100.00
10127;BME280;13080;42.608;23.362;2023-04-09T00:45:41;152061.88;;;3.79;100.00
10127;BME280;13080;42.608;23.362;2023-04-09T00:48:09;152057.97;;;3.78;100.00
10127;BME280;13080;42.608;23.362;2023-04-09T00:50:36;152055.38;;;3.77;100.00
10127;BME280;13080;42.608;23.362;2023-04-09T00:53:03;152039.91;;;3.70;100.00
10127;BME280;13080;42.608;23.362;2023-04-09T00:55:30;152037.28;;;3.69;100.00
10127;BME280;13080;42.608;23.362;2023-04-09T00:57:58;152023.09;;;3.64;100.00
10127;BME280;13080;42.608;23.362;2023-04-09T01:00:25;152012.75;;;3.60;100.00
10127;BME280;13080;42.608;23.362;2023-04-09T01:02:52;152002.44;;;3.56;100.00
10127;BME280;13080;42.608;23.362;2023-04-09T01:05:23;151989.53;;;3.50;100.00
10127;BME280;13080;42.608;23.362;2023-04-09T01:08:00;151995.97;;;3.53;100.00
10127;BME280;13080;42.608;23.362;2023-04-09T01:10:34;151990.81;;;3.51;100.00
10127;BME280;13080;42.608;23.362;2023-04-09T01:13:06;151983.06;;;3.48;100.00
10127;BME280;13080;42.608;23.362;2023-04-09T01:15:38;151975.28;;;3.45;100.00
10127;BME280;13080;42.608;23.362;2023-04-09T01:18:10;151962.41;;;3.40;100.00
10127;BME280;13080;42.608;23.362;2023-04-09T01:20:41;151957.22;;;3.38;100.00
10127;BME280;13080;42.608;23.362;2023-04-09T01:23:17;151941.72;;;3.31;100.00
10127;BME280;13080;42.608;23.362;2023-04-09T01:25:55;151932.69;;;3.28;100.00
10127;BME280;13080;42.608;23.362;2023-04-09T01:28:30;151922.38;;;3.24;100.00
10127;BME280;13080;42.608;23.362;2023-04-09T01:31:00;151909.47;;;3.19;100.00
10127;BME280;13080;42.608;23.362;2023-04-09T01:33:28;151893.97;;;3.12;100.00
10127;BME280;13080;42.608;23.362;2023-04-09T01:35:56;151901.69;;;3.16;100.00
10127;BME280;13080;42.608;23.362;2023-04-09T01:38:24;151892.69;;;3.12;100.00
10127;BME280;13080;42.608;23.362;2023-04-09T01:40:53;151884.91;;;3.09;100.00
10127;BME280;13080;42.608;23.362;2023-04-09T01:43:21;151892.69;;;3.12;100.00
10127;BME280;13080;42.608;23.362;2023-04-09T01:45:50;151874.56;;;3.05;100.00
10127;BME280;13080;42.608;23.362;2023-04-09T01:48:19;151856.50;;;2.98;100.00
10127;BME280;13080;42.608;23.362;2023-04-09T01:50:46;151855.22;;;2.97;100.00
10127;BME280;13080;42.608;23.362;2023-04-09T01:53:13;151841.03;;;2.91;100.00
10127;BME280;13080;42.608;23.362;2023-04-09T01:55:40;151821.66;;;2.84;100.00
10127;BME280;13080;42.608;23.362;2023-04-09T01:58:07;151811.31;;;2.80;100.00
10127;BME280;13080;42.608;23.362;2023-04-09T02:00:37;151806.16;;;2.78;100.00
10127;BME280;13080;42.608;23.362;2023-04-09T02:03:07;151788.09;;;2.70;100.00
10127;BME280;13080;42.608;23.362;2023-04-09T02:05:38;151781.63;;;2.68;100.00
10127;BME280;13080;42.608;23.362;2023-04-09T02:08:09;151782.91;;;2.68;100.00
10127;BME280;13080;42.608;23.362;2023-04-09T02:10:39;151768.75;;;2.63;100.00
10127;BME280;13080;42.608;23.362;2023-04-09T02:13:08;151757.13;;;2.58;100.00
10127;BME280;13080;42.608;23.362;2023-04-09T02:15:39;151740.34;;;2.52;100.00
10127;BME280;13080;42.608;23.362;2023-04-09T02:18:21;151731.31;;;2.48;100.00
10127;BME280;13080;42.608;23.362;2023-04-09T02:20:48;151722.31;;;2.44;100.00
10127;BME280;13080;42.608;23.362;2023-04-09T02:23:15;151726.13;;;2.46;100.00
10127;BME280;13080;42.608;23.362;2023-04-09T02:25:42;151726.13;;;2.46;100.00
10127;BME280;13080;42.608;23.362;2023-04-09T02:28:09;151728.75;;;2.47;100.00
10127;BME280;13080;42.608;23.362;2023-04-09T02:30:36;151723.59;;;2.45;100.00
10127;BME280;13080;42.608;23.362;2023-04-09T02:33:03;151726.13;;;2.46;100.00
10127;BME280;13080;42.608;23.362;2023-04-09T02:35:31;151728.75;;;2.47;100.00
10127;BME280;13080;42.608;23.362;2023-04-09T02:37:58;151728.75;;;2.47;100.00
10127;BME280;13080;42.608;23.362;2023-04-09T02:40:25;151726.13;;;2.46;100.00
10127;BME280;13080;42.608;23.362;2023-04-09T02:42:52;151723.59;;;2.45;100.00
10127;BME280;13080;42.608;23.362;2023-04-09T02:45:19;151741.63;;;2.52;100.00
10127;BME280;13080;42.608;23.362;2023-04-09T02:47:45;151744.19;;;2.53;100.00
10127;BME280;13080;42.608;23.362;2023-04-09T02:50:12;151749.38;;;2.55;100.00
10127;BME280;13080;42.608;23.362;2023-04-09T02:52:40;151753.25;;;2.57;100.00
10127;BME280;13080;42.608;23.362;2023-04-09T02:55:07;151766.16;;;2.62;100.00
10127;BME280;13080;42.608;23.362;2023-04-09T02:57:34;151772.59;;;2.64;100.00
10127;BME280;13080;42.608;23.362;2023-04-09T03:00:01;151779.09;;;2.67;100.00
10127;BME280;13080;42.608;23.362;2023-04-09T03:02:28;151780.38;;;2.67;100.00
10127;BME280;13080;42.608;23.362;2023-04-09T03:04:55;151772.59;;;2.64;100.00
10127;BME280;13080;42.608;23.362;2023-04-09T03:07:21;151777.75;;;2.66;100.00
10127;BME280;13080;42.608;23.362;2023-04-09T03:09:49;151767.47;;;2.62;100.00
10127;BME280;13080;42.608;23.362;2023-04-09T03:12:16;151773.91;;;2.65;100.00
10127;BME280;13080;42.608;23.362;2023-04-09T03:14:43;151790.69;;;2.72;100.00
10127;BME280;13080;42.608;23.362;2023-04-09T03:17:10;151790.69;;;2.72;100.00
10127;BME280;13080;42.608;23.362;2023-04-09T03:19:36;151782.91;;;2.68;100.00
10127;BME280;13080;42.608;23.362;2023-04-09T03:22:03;151791.97;;;2.72;100.00
10127;BME280;13080;42.608;23.362;2023-04-09T03:24:30;151789.38;;;2.71;100.00
10127;BME280;13080;42.608;23.362;2023-04-09T03:26:59;151781.63;;;2.68;100.00
10127;BME280;13080;42.608;23.362;2023-04-09T03:29:26;151798.41;;;2.75;100.00
10127;BME280;13080;42.608;23.362;2023-04-09T03:31:52;151806.16;;;2.78;100.00
10127;BME280;13080;42.608;23.362;2023-04-09T03:34:19;151806.16;;;2.78;100.00
10127;BME280;13080;42.608;23.362;2023-04-09T03:36:46;151815.22;;;2.81;100.00
10127;BME280;13080;42.608;23.362;2023-04-09T03:39:13;151821.66;;;2.84;100.00
10127;BME280;13080;42.608;23.362;2023-04-09T03:41:39;151822.94;;;2.84;100.00
10127;BME280;13080;42.608;23.362;2023-04-09T03:44:07;151830.72;;;2.87;100.00
10127;BME280;13080;42.608;23.362;2023-04-09T03:46:34;151817.75;;;2.82;100.00
10127;BME280;13080;42.608;23.362;2023-04-09T03:49:01;151826.81;;;2.86;100.00
10127;BME280;13080;42.608;23.362;2023-04-09T03:51:28;151838.44;;;2.90;100.00
10127;BME280;13080;42.608;23.362;2023-04-09T03:53:54;151842.31;;;2.92;100.00
10127;BME280;13080;42.608;23.362;2023-04-09T03:56:21;151851.34;;;2.96;100.00
10127;BME280;13080;42.608;23.362;2023-04-09T03:58:48;151862.94;;;3.00;100.00
10127;BME280;13080;42.608;23.362;2023-04-09T04:01:16;151861.66;;;3.00;100.00
10127;BME280;13080;42.608;23.362;2023-04-09T04:03:43;151882.34;;;3.08;100.00
10127;BME280;13080;42.608;23.362;2023-04-09T04:06:09;151878.44;;;3.06;100.00
10127;BME280;13080;42.608;23.362;2023-04-09T04:08:36;151899.13;;;3.15;100.00
10127;BME280;13080;42.608;23.362;2023-04-09T04:11:03;151900.41;;;3.15;100.00
10127;BME280;13080;42.608;23.362;2023-04-09T04:13:30;151893.97;;;3.12;100.00
10127;BME280;13080;42.608;23.362;2023-04-09T04:15:57;151888.78;;;3.10;100.00
10127;BME280;13080;42.608;23.362;2023-04-09T04:18:25;151897.84;;;3.14;100.00
10127;BME280;13080;42.608;23.362;2023-04-09T04:20:52;151901.69;;;3.16;100.00
10127;BME280;13080;42.608;23.362;2023-04-09T04:23:18;151905.56;;;3.17;100.00
10127;BME280;13080;42.608;23.362;2023-04-09T04:25:45;151905.56;;;3.17;100.00
10127;BME280;13080;42.608;23.362;2023-04-09T04:28:12;151922.38;;;3.24;100.00
10127;BME280;13080;42.608;23.362;2023-04-09T04:30:40;151937.88;;;3.30;100.00
10127;BME280;13080;42.608;23.362;2023-04-09T04:33:07;151967.56;;;3.42;100.00
10127;BME280;13080;42.608;23.362;2023-04-09T04:35:35;151977.91;;;3.46;100.00
10127;BME280;13080;42.608;23.362;2023-04-09T04:38:02;151993.38;;;3.52;100.00
10127;BME280;13080;42.608;23.362;2023-04-09T04:40:28;152012.75;;;3.60;100.00
10127;BME280;13080;42.608;23.362;2023-04-09T04:42:55;152034.72;;;3.68;100.00
10127;BME280;13080;42.608;23.362;2023-04-09T04:45:22;152047.63;;;3.73;100.00
10127;BME280;13080;42.608;23.362;2023-04-09T04:47:49;152060.53;;;3.79;100.00
10127;BME280;13080;42.608;23.362;2023-04-09T04:50:15;152086.41;;;3.89;100.00
10127;BME280;13080;42.608;23.362;2023-04-09T04:52:43;152092.84;;;3.91;100.00
10127;BME280;13080;42.608;23.362;2023-04-09T04:55:10;152100.59;;;3.94;100.00
10127;BME280;13080;42.608;23.362;2023-04-09T04:57:37;152134.19;;;4.08;100.00
10127;BME280;13080;42.608;23.362;2023-04-09T05:00:04;152148.41;;;4.13;100.00
10127;BME280;13080;42.608;23.362;2023-04-09T05:02:31;152165.22;;;4.20;100.00
10127;BME280;13080;42.608;23.362;2023-04-09T05:04:58;152184.59;;;4.28;100.00
10127;BME280;13080;42.608;23.362;2023-04-09T05:07:25;152222.09;;;4.43;100.00
10127;BME280;13080;42.608;23.362;2023-04-09T05:09:53;152259.59;;;4.57;100.00
10127;BME280;13080;42.608;23.362;2023-04-09T05:12:19;152298.34;;;4.73;100.00
10127;BME280;13080;42.608;23.362;2023-04-09T05:14:46;152324.22;;;4.83;100.00
10127;BME280;13080;42.608;23.362;2023-04-09T05:17:13;152343.59;;;4.91;100.00
10127;BME280;13080;42.608;23.362;2023-04-09T05:19:40;152372.03;;;5.02;100.00
10127;BME280;13080;42.608;23.362;2023-04-09T05:22:06;152382.38;;;5.06;100.00
10127;BME280;13080;42.608;23.362;2023-04-09T05:24:33;152413.44;;;5.18;100.00
10127;BME280;13080;42.608;23.362;2023-04-09T05:27:01;152448.34;;;5.32;100.00
10127;BME280;13080;42.608;23.362;2023-04-09T05:29:28;152485.88;;;5.47;100.00
10127;BME280;13080;42.608;23.362;2023-04-09T05:31:55;152506.56;;;5.55;100.00
10127;BME280;13080;42.608;23.362;2023-04-09T05:34:21;152528.56;;;5.64;100.00
10127;BME280;13080;42.608;23.362;2023-04-09T05:36:48;152536.31;;;5.67;100.00
10127;BME280;13080;42.608;23.362;2023-04-09T05:39:15;152554.47;;;5.74;100.00
10127;BME280;13080;42.608;23.362;2023-04-09T05:41:42;152537.63;;;5.68;100.00
10127;BME280;13080;42.608;23.362;2023-04-09T05:44:10;152546.66;;;5.71;100.00
10127;BME280;13080;42.608;23.362;2023-04-09T05:46:37;152566.09;;;5.79;100.00
10127;BME280;13080;42.608;23.362;2023-04-09T05:49:04;152568.66;;;5.80;100.00
10127;BME280;13080;42.608;23.362;2023-04-09T05:51:31;152532.44;;;5.66;100.00
10127;BME280;13080;42.608;23.362;2023-04-09T05:53:57;152569.94;;;5.80;99.57
10127;BME280;13080;42.608;23.362;2023-04-09T05:56:24;152589.38;;;5.88;99.64
10127;BME280;13080;42.608;23.362;2023-04-09T05:58:52;152597.13;;;5.91;99.58
10127;BME280;13080;42.608;23.362;2023-04-09T06:01:20;152604.97;;;5.94;98.18
10127;BME280;13080;42.608;23.362;2023-04-09T06:03:47;152643.75;;;6.10;97.96
10127;BME280;13080;42.608;23.362;2023-04-09T06:06:14;152673.56;;;6.21;96.49
10127;BME280;13080;42.608;23.362;2023-04-09T06:08:40;152695.56;;;6.30;95.98
10127;BME280;13080;42.608;23.362;2023-04-09T06:11:10;152686.50;;;6.27;96.24
10127;BME280;13080;42.608;23.362;2023-04-09T06:13:37;152705.88;;;6.34;95.77
10127;BME280;13080;42.608;23.362;2023-04-09T06:16:05;152716.25;;;6.38;95.01
10127;BME280;13080;42.608;23.362;2023-04-09T06:18:34;152731.81;;;6.44;94.25
10127;BME280;13080;42.608;23.362;2023-04-09T06:21:01;152762.84;;;6.57;94.35
10127;BME280;13080;42.608;23.362;2023-04-09T06:23:28;152803.03;;;6.73;93.80
10127;BME280;13080;42.608;23.362;2023-04-09T06:25:56;152817.25;;;6.78;92.73
10127;BME280;13080;42.608;23.362;2023-04-09T06:28:22;152831.53;;;6.84;92.42
10127;BME280;13080;42.608;23.362;2023-04-09T06:30:49;152830.19;;;6.83;92.15
10127;BME280;13080;42.608;23.362;2023-04-09T06:33:17;152882.00;;;7.04;92.35
10127;BME280;13080;42.608;23.362;2023-04-09T06:35:46;152922.19;;;7.20;91.00
10127;BME280;13080;42.608;23.362;2023-04-09T06:38:13;152948.06;;;7.30;88.95
10127;BME280;13080;42.608;23.362;2023-04-09T06:40:40;152963.63;;;7.36;86.46
10127;BME280;13080;42.608;23.362;2023-04-09T06:43:07;152977.84;;;7.42;87.18
10127;BME280;13080;42.608;23.362;2023-04-09T06:45:35;152968.81;;;7.38;87.94
10127;BME280;13080;42.608;23.362;2023-04-09T06:48:02;152983.03;;;7.44;86.28
10127;BME280;13080;42.608;23.362;2023-04-09T06:50:29;153029.72;;;7.62;87.56
10127;BME280;13080;42.608;23.362;2023-04-09T06:52:57;153037.47;;;7.65;88.45
10127;BME280;13080;42.608;23.362;2023-04-09T06:55:24;153024.53;;;7.60;84.67
10127;BME280;13080;42.608;23.362;2023-04-09T06:57:51;153041.38;;;7.67;85.01
10127;BME280;13080;42.608;23.362;2023-04-09T07:00:18;153040.06;;;7.66;83.29
10127;BME280;13080;42.608;23.362;2023-04-09T07:02:47;153037.47;;;7.65;84.03
10127;BME280;13080;42.608;23.362;2023-04-09T07:05:14;153023.22;;;7.60;84.93
10127;BME280;13080;42.608;23.362;2023-04-09T07:07:40;153001.22;;;7.51;85.64
10127;BME280;13080;42.608;23.362;2023-04-09T07:10:09;152990.84;;;7.47;84.78
10127;BME280;13080;42.608;23.362;2023-04-09T07:12:36;152998.59;;;7.50;84.52
10127;BME280;13080;42.608;23.362;2023-04-09T07:15:04;153015.44;;;7.57;84.26
10127;BME280;13080;42.608;23.362;2023-04-09T07:17:31;153029.72;;;7.62;84.50
10127;BME280;13080;42.608;23.362;2023-04-09T07:19:58;153080.22;;;7.82;84.44
10127;BME280;13080;42.608;23.362;2023-04-09T07:22:27;153098.41;;;7.89;81.45
10127;BME280;13080;42.608;23.362;2023-04-09T07:24:53;153146.34;;;8.08;82.24
10127;BME280;13080;42.608;23.362;2023-04-09T07:27:23;153183.97;;;8.23;80.82
10127;BME280;13080;42.608;23.362;2023-04-09T07:29:52;153163.19;;;8.15;79.42
10127;BME280;13080;42.608;23.362;2023-04-09T07:32:19;153199.47;;;8.29;80.24
10127;BME280;13080;42.608;23.362;2023-04-09T07:34:46;153137.25;;;8.05;80.53
10127;BME280;13080;42.608;23.362;2023-04-09T07:37:13;153126.91;;;8.01;80.06
10127;BME280;13080;42.608;23.362;2023-04-09T07:39:39;153107.47;;;7.93;81.08
10127;BME280;13080;42.608;23.362;2023-04-09T07:42:06;153098.41;;;7.89;81.29
10127;BME280;13080;42.608;23.362;2023-04-09T07:44:35;153091.94;;;7.87;82.24
10127;BME280;13080;42.608;23.362;2023-04-09T07:47:02;153089.31;;;7.86;81.35
10127;BME280;13080;42.608;23.362;2023-04-09T07:49:29;153029.72;;;7.62;82.60
10127;BME280;13080;42.608;23.362;2023-04-09T07:51:57;153042.69;;;7.67;82.82
10127;BME280;13080;42.608;23.362;2023-04-09T07:54:24;153084.13;;;7.84;82.56
10127;BME280;13080;42.608;23.362;2023-04-09T07:56:51;153115.25;;;7.96;82.32
10127;BME280;13080;42.608;23.362;2023-04-09T07:59:17;153112.63;;;7.95;81.92
10127;BME280;13080;42.608;23.362;2023-04-09T08:01:46;153129.50;;;8.02;80.48
10127;BME280;13080;42.608;23.362;2023-04-09T08:04:12;153150.25;;;8.10;80.34
10127;BME280;13080;42.608;23.362;2023-04-09T08:06:39;153095.78;;;7.88;82.17
10127;BME280;13080;42.608;23.362;2023-04-09T08:09:06;153099.69;;;7.90;82.67
10127;BME280;13080;42.608;23.362;2023-04-09T08:11:33;153116.53;;;7.97;80.88
10127;BME280;13080;42.608;23.362;2023-04-09T08:14:00;153123.03;;;7.99;81.42
10127;BME280;13080;42.608;23.362;2023-04-09T08:16:28;153156.72;;;8.12;81.44
10127;BME280;13080;42.608;23.362;2023-04-09T08:18:56;153190.44;;;8.26;80.31
10127;BME280;13080;42.608;23.362;2023-04-09T08:21:23;153191.72;;;8.26;79.87
10127;BME280;13080;42.608;23.362;2023-04-09T08:23:51;153242.34;;;8.46;78.86
10127;BME280;13080;42.608;23.362;2023-04-09T08:26:17;153246.25;;;8.48;78.13
10127;BME280;13080;42.608;23.362;2023-04-09T08:28:44;153200.81;;;8.30;78.25
10127;BME280;13080;42.608;23.362;2023-04-09T08:31:11;153193.00;;;8.27;78.41
10127;BME280;13080;42.608;23.362;2023-04-09T08:33:37;153212.47;;;8.35;78.52
10127;BME280;13080;42.608;23.362;2023-04-09T08:36:08;153193.00;;;8.27;78.74
10127;BME280;13080;42.608;23.362;2023-04-09T08:38:36;153198.19;;;8.29;78.75
10127;BME280;13080;42.608;23.362;2023-04-09T08:41:02;153191.72;;;8.26;78.56
10127;BME280;13080;42.608;23.362;2023-04-09T08:43:31;153178.78;;;8.21;80.46
10127;BME280;13080;42.608;23.362;2023-04-09T08:45:58;153117.84;;;7.97;80.15
10127;BME280;13080;42.608;23.362;2023-04-09T08:48:25;153115.25;;;7.96;80.68
10127;BME280;13080;42.608;23.362;2023-04-09T08:50:52;153100.97;;;7.90;81.38
10127;BME280;13080;42.608;23.362;2023-04-09T08:53:20;153174.88;;;8.20;79.28
10127;BME280;13080;42.608;23.362;2023-04-09T08:55:48;153180.06;;;8.22;80.70
10127;BME280;13080;42.608;23.362;2023-04-09T08:58:15;153225.44;;;8.40;79.10
10127;BME280;13080;42.608;23.362;2023-04-09T09:00:42;153189.16;;;8.25;79.04
10127;BME280;13080;42.608;23.362;2023-04-09T09:03:10;153212.47;;;8.35;79.83
10127;BME280;13080;42.608;23.362;2023-04-09T09:05:38;153182.63;;;8.23;77.84
10127;BME280;13080;42.608;23.362;2023-04-09T09:08:06;153177.50;;;8.21;78.62
10127;BME280;13080;42.608;23.362;2023-04-09T09:10:39;153203.38;;;8.31;79.06
10127;BME280;13080;42.608;23.362;2023-04-09T09:13:20;153202.09;;;8.30;78.22
10127;BME280;13080;42.608;23.362;2023-04-09T09:15:48;153224.16;;;8.39;79.12
10127;BME280;13080;42.608;23.362;2023-04-09T09:18:19;153213.78;;;8.35;77.44
10127;BME280;13080;42.608;23.362;2023-04-09T09:20:46;153274.78;;;8.59;77.64
10127;BME280;13080;42.608;23.362;2023-04-09T09:23:13;153243.63;;;8.47;76.77
10127;BME280;13080;42.608;23.362;2023-04-09T09:25:41;153285.16;;;8.63;76.88
10127;BME280;13080;42.608;23.362;2023-04-09T09:28:10;153318.84;;;8.77;77.56
10127;BME280;13080;42.608;23.362;2023-04-09T09:30:38;153348.69;;;8.88;76.15
10127;BME280;13080;42.608;23.362;2023-04-09T09:33:06;153355.19;;;8.91;76.66
10127;BME280;13080;42.608;23.362;2023-04-09T09:35:46;153359.09;;;8.92;74.49
10127;BME280;13080;42.608;23.362;2023-04-09T09:38:14;153379.81;;;9.01;75.58
10127;BME280;13080;42.608;23.362;2023-04-09T09:40:43;153400.59;;;9.09;77.04
10127;BME280;13080;42.608;23.362;2023-04-09T09:43:10;153416.16;;;9.15;76.39
10127;BME280;13080;42.608;23.362;2023-04-09T09:45:37;153378.53;;;9.00;73.23
10127;BME280;13080;42.608;23.362;2023-04-09T09:48:04;153373.31;;;8.98;73.16
10127;BME280;13080;42.608;23.362;2023-04-09T09:50:34;153390.19;;;9.05;75.22
10127;BME280;13080;42.608;23.362;2023-04-09T09:53:03;153401.88;;;9.09;73.45
10127;BME280;13080;42.608;23.362;2023-04-09T09:55:31;153439.50;;;9.24;75.57
10127;BME280;13080;42.608;23.362;2023-04-09T09:58:01;153431.69;;;9.21;74.49
10127;BME280;13080;42.608;23.362;2023-04-09T10:00:31;153397.97;;;9.08;73.95
10127;BME280;13080;42.608;23.362;2023-04-09T10:03:04;153416.16;;;9.15;74.81
10127;BME280;13080;42.608;23.362;2023-04-09T10:05:34;153452.47;;;9.29;72.76
10127;BME280;13080;42.608;23.362;2023-04-09T10:08:03;153451.19;;;9.29;70.64
10127;BME280;13080;42.608;23.362;2023-04-09T10:10:31;153479.72;;;9.40;72.36
10127;BME280;13080;42.608;23.362;2023-04-09T10:13:00;153525.16;;;9.58;70.20
10127;BME280;13080;42.608;23.362;2023-04-09T10:15:28;153526.44;;;9.58;70.29
10127;BME280;13080;42.608;23.362;2023-04-09T10:17:56;153514.75;;;9.54;70.35
10127;BME280;13080;42.608;23.362;2023-04-09T10:20:27;153486.22;;;9.43;69.43
10127;BME280;13080;42.608;23.362;2023-04-09T10:23:01;153490.13;;;9.44;71.08
10127;BME280;13080;42.608;23.362;2023-04-09T10:25:28;153516.03;;;9.54;70.04
10127;BME280;13080;42.608;23.362;2023-04-09T10:28:01;153543.31;;;9.65;70.74
10127;BME280;13080;42.608;23.362;2023-04-09T10:30:31;153591.31;;;9.84;68.10
10127;BME280;13080;42.608;23.362;2023-04-09T10:33:08;153653.63;;;10.09;67.81
10127;BME280;13080;42.608;23.362;2023-04-09T10:35:35;153725.09;;;10.37;67.02
10127;BME280;13080;42.608;23.362;2023-04-09T10:38:02;153804.34;;;10.68;66.59
10127;BME280;13080;42.608;23.362;2023-04-09T10:40:29;153844.59;;;10.84;63.41
10127;BME280;13080;42.608;23.362;2023-04-09T10:42:57;153867.97;;;10.93;63.21
10127;BME280;13080;42.608;23.362;2023-04-09T10:45:38;153883.56;;;10.99;63.52
10127;BME280;13080;42.608;23.362;2023-04-09T10:48:05;153880.94;;;10.98;61.80
10127;BME280;13080;42.608;23.362;2023-04-09T10:50:37;153913.44;;;11.11;62.51
10127;BME280;13080;42.608;23.362;2023-04-09T10:53:04;153944.66;;;11.23;60.93
10127;BME280;13080;42.608;23.362;2023-04-09T10:55:34;153995.34;;;11.43;62.23
10127;BME280;13080;42.608;23.362;2023-04-09T10:58:02;154060.31;;;11.69;60.68
10127;BME280;13080;42.608;23.362;2023-04-09T11:00:32;154083.69;;;11.78;59.71
10127;BME280;13080;42.608;23.362;2023-04-09T11:03:19;154108.44;;;11.88;60.00
10127;BME280;13080;42.608;23.362;2023-04-09T11:05:50;154133.16;;;11.98;57.75
10127;BME280;13080;42.608;23.362;2023-04-09T11:08:17;154138.38;;;12.00;59.75
10127;BME280;13080;42.608;23.362;2023-04-09T11:10:46;154140.94;;;12.01;58.94
10127;BME280;13080;42.608;23.362;2023-04-09T11:13:14;154105.81;;;11.87;58.26
10127;BME280;13080;42.608;23.362;2023-04-09T11:15:43;154062.88;;;11.70;59.51
10127;BME280;13080;42.608;23.362;2023-04-09T11:18:13;154057.72;;;11.68;60.84
10127;BME280;13080;42.608;23.362;2023-04-09T11:20:40;154038.22;;;11.60;60.16
10127;BME280;13080;42.608;23.362;2023-04-09T11:23:07;154070.72;;;11.73;59.36
10127;BME280;13080;42.608;23.362;2023-04-09T11:25:34;154065.50;;;11.71;57.53
10127;BME280;13080;42.608;23.362;2023-04-09T11:28:02;154055.09;;;11.67;56.43
10127;BME280;13080;42.608;23.362;2023-04-09T11:30:30;153953.72;;;11.27;58.75
10127;BME280;13080;42.608;23.362;2023-04-09T11:33:00;153966.75;;;11.32;57.73
10127;BME280;13080;42.608;23.362;2023-04-09T11:35:27;153951.16;;;11.26;57.58
10127;BME280;13080;42.608;23.362;2023-04-09T11:37:54;153906.97;;;11.09;57.74
10127;BME280;13080;42.608;23.362;2023-04-09T11:40:21;153857.56;;;10.89;57.94
10127;BME280;13080;42.608;23.362;2023-04-09T11:42:49;153808.25;;;10.70;59.35
10127;BME280;13080;42.608;23.362;2023-04-09T11:45:17;153793.94;;;10.64;59.61
10127;BME280;13080;42.608;23.362;2023-04-09T11:47:44;153814.72;;;10.72;57.59
10127;BME280;13080;42.608;23.362;2023-04-09T11:50:13;153804.34;;;10.68;57.67
10127;BME280;13080;42.608;23.362;2023-04-09T11:52:41;153836.81;;;10.81;57.85
10127;BME280;13080;42.608;23.362;2023-04-09T11:55:09;153879.66;;;10.98;57.97
10127;BME280;13080;42.608;23.362;2023-04-09T11:57:40;153849.81;;;10.86;58.50
10127;BME280;13080;42.608;23.362;2023-04-09T12:00:08;153852.38;;;10.87;58.03
10127;BME280;13080;42.608;23.362;2023-04-09T12:02:38;153849.81;;;10.86;59.85
10127;BME280;13080;42.608;23.362;2023-04-09T12:05:07;153857.56;;;10.89;59.69
10127;BME280;13080;42.608;23.362;2023-04-09T12:07:36;153855.00;;;10.88;61.63
10127;BME280;13080;42.608;23.362;2023-04-09T12:10:03;153861.47;;;10.91;62.23
10127;BME280;13080;42.608;23.362;2023-04-09T12:12:30;153865.41;;;10.92;62.07
10127;BME280;13080;42.608;23.362;2023-04-09T12:14:57;153883.56;;;10.99;62.21
10127;BME280;13080;42.608;23.362;2023-04-09T12:17:23;153871.88;;;10.95;62.42
10127;BME280;13080;42.608;23.362;2023-04-09T12:19:50;153916.06;;;11.12;62.21
10127;BME280;13080;42.608;23.362;2023-04-09T12:22:17;153988.81;;;11.41;61.77
10127;BME280;13080;42.608;23.362;2023-04-09T12:24:45;154086.31;;;11.79;62.61
10127;BME280;13080;42.608;23.362;2023-04-09T12:27:12;154147.44;;;12.03;59.52
10127;BME280;13080;42.608;23.362;2023-04-09T12:29:39;154190.38;;;12.20;60.20
10127;BME280;13080;42.608;23.362;2023-04-09T12:32:05;154186.47;;;12.19;57.53
10127;BME280;13080;42.608;23.362;2023-04-09T12:34:33;154218.97;;;12.32;58.83
10127;BME280;13080;42.608;23.362;2023-04-09T12:37:00;154179.97;;;12.16;56.70
10127;BME280;13080;42.608;23.362;2023-04-09T12:39:27;154174.75;;;12.14;55.54
10127;BME280;13080;42.608;23.362;2023-04-09T12:41:55;154191.66;;;12.21;55.91
10127;BME280;13080;42.608;23.362;2023-04-09T12:44:22;154182.53;;;12.17;56.28
10127;BME280;13080;42.608;23.362;2023-04-09T12:46:48;154179.97;;;12.16;56.99